Glasgow, KY

11:37 AM CST on February 24, 2017 (GMT -0600)
Glasgow Municipal | | Change Station
Active Advisory: Special Statement

Elev 715 ft 37.03 °N, 85.95 °W | Updated 27 minutes ago

Partly Cloudy
Partly Cloudy
74 °F
Feels Like 74 °F
N
18
Wind Variable Wind from SSW
Gusts 31 mph

Today
High -- | Low -- °F
--% Chance of Precip.
Yesterday
High -- | Low -- °F
Precip. -- in
Pressure 29.71 in
Visibility 10.0 miles
Clouds Scattered Clouds 4100 ft
Dew Point 54 °F
Humidity 51%
Rainfall 0.00 in
Snow Depth Not available.
6:21 AM 5:33 PM
Waning Crescent, 4% visible
METAR KGLW 241710Z AUTO 20016G27KT 170V230 10SM SCT041 23/13 A2971 RMK AO2 T02320125
Pressure 29.71 in
Visibility 10.0 miles
Clouds Scattered Clouds 4100 ft
Dew Point 54 °F
Humidity 51%
Rainfall 0.00 in
Snow Depth Not available.
6:21 AM 5:33 PM
Waning Crescent, 4% visible
METAR KGLW 241710Z AUTO 20016G27KT 170V230 10SM SCT041 23/13 A2971 RMK AO2 T02320125

Get Your Daily Forecast Email!

Thanks for signing up!

Be on the lookout for a verification email in your inbox.

You'll start receiving the daily forecast at 8 AM.

×

10-Day Weather Forecast

Almanac

Astronomy

Feb. 24, 2017 Rise Set
Actual Time
Civil Twilight
Nautical Twilight
Astronomical Twilight
Moon
Length of Visible Light
Length of Day
Tomorrow will be .
, % of the Moon is Illuminated

Today's Extremes

State Highs State Lows

Community

WunderPhotos

Upload Photos

1,962,540 photos uploaded!

WunderBlog® & News

Nearby

Air Quality

  Air Quality AQ Index Pollutant
Not available.

Snow Depth

Station Depth Elevation

Earthquake Activity

City Distance Mag. Time & Date
Minimum magnitude displayed is 2.5.

Coastal Water Temperatures

Place Temperature

Stations

Nearby Weather Stations

Station Location Temp. Windchill Dew Point Humidity Wind Precip. Elev Updated Type
                   

Watches & Warnings

Special Statement
Issued: 10:02 AM CST Feb. 24, 2017 – National Weather Service

... Gusty south winds will continue this afternoon...

South winds will remain gusty through the afternoon, with frequent
gusts near 35 mph. Winds this strong will make driving difficult
for high-profile vehicles on east-west roadways... including
Interstate 64... and the parkways in Kentucky.


Ras